KCKV/CKV METAR and TAF weather

Enter ICAO airport designator
Station Type Date Time Source
KCKV METAR 2018/04/23 10:52 UTC NOAA

KCKV 231052Z AUTO 21004KT 5SM -RA BR OVC007 14/13 A2987 RMK AO2 SLP113 P0007 T01440128


Station Type Date Time Source
KCKV Decoded METAR 2018/04/23 10:52 UTC NOAA

CLARKSVILLE OUTLAW FIELD, TN, United States (KCKV) 36-37N 87-25W 165M
Apr 23, 2018 - 06:52 AM EDT / 2018.04.23 1052 UTC
Wind: from the SSW (210 degrees) at 5 MPH (4 KT):0
Visibility: 5 mile(s):0
Sky conditions: overcast
Weather: light rain; mist
Precipitation last hour: 0.07 inches
Temperature: 57.9 F (14.4 C)
Dew Point: 55.0 F (12.8 C)
Relative Humidity: 90%
Pressure (altimeter): 29.87 in. Hg (1011 hPa)
ob: KCKV 231052Z AUTO 21004KT 5SM -RA BR OVC007 14/13 A2987 RMK AO2 SLP113 P0007 T01440128
cycle: 11

Station Type Date Time Source
KCKV TAF 2018/04/23 11:36 UTC NOAA

TAF
AMD KCKV 231034Z 2311/2406 14014KT P6SM SCT008 OVC030
TEMPO 2311/2313 2SM -SHRA BR OVC008
FM231300 16010G15KT P6SM VCSH OVC020
FM231800 15008KT P6SM VCSH OVC035
FM240500 VRB03KT P6SM OVC025


Example: see airport list